Time;durP1;ratioP1;P1;durP2;ratioP2;P2;SDS_P1;SDS_P2;PMS_P1;PMS_P2;Temp;Humidity;BMP_temperature;BMP_pressure;BME280_temperature;BME280_humidity;BME280_pressure;Samples;Min_cycle;Max_cycle;Signal;HPM_P1;HPM_P2
2022/05/14 00:00:48;;;;;;;8.90;4.40;;;;;;;;;;5042875;28;20059;-32
2022/05/14 00:03:14;;;;;;;7.93;4.60;;;;;;;;;;5048958;28;20060;-32
2022/05/14 00:05:42;;;;;;;8.50;3.97;;;;;;;;;;5048729;28;20502;-33
2022/05/14 00:08:08;;;;;;;8.35;4.38;;;;;;;;;;5043347;28;20125;-32
2022/05/14 00:13:03;;;;;;;7.85;4.55;;;;;;;;;;5047380;28;20044;-31
2022/05/14 00:13:21;;;;;;;5.28;4.28;;;;;;;;;;5050919;28;20603;-32
2022/05/14 00:15:47;;;;;;;8.77;4.97;;;;;;;;;;5050947;28;20032;-32
2022/05/14 00:18:13;;;;;;;8.50;4.45;;;;;;;;;;5049889;28;20041;-29
2022/05/14 00:20:39;;;;;;;9.40;4.65;;;;;;;;;;5050800;28;20549;-32
2022/05/14 00:23:06;;;;;;;7.82;4.82;;;;;;;;;;5050903;28;20029;-32
2022/05/14 00:25:33;;;;;;;8.85;4.78;;;;;;;;;;5044194;28;20138;-31
2022/05/14 00:27:59;;;;;;;8.98;4.53;;;;;;;;;;5050216;28;20120;-35
2022/05/14 00:30:26;;;;;;;7.10;4.20;;;;;;;;;;5050478;28;20037;-31
2022/05/14 00:32:53;;;;;;;8.20;4.63;;;;;;;;;;5044660;28;20375;-33
2022/05/14 00:35:19;;;;;;;12.70;4.70;;;;;;;;;;5041849;28;20128;-31
2022/05/14 00:37:46;;;;;;;9.65;5.03;;;;;;;;;;5050186;28;20120;-33
2022/05/14 00:40:24;;;;;;;9.63;5.00;;;;;;;;;;5041529;28;20041;-31
2022/05/14 00:42:52;;;;;;;7.90;3.88;;;;;;;;;;5048875;28;20041;-31
2022/05/14 00:45:18;;;;;;;12.07;5.28;;;;;;;;;;5035392;28;20048;-32
2022/05/14 00:47:45;;;;;;;8.32;4.20;;;;;;;;;;5050349;28;20281;-34
2022/05/14 00:50:23;;;;;;;10.88;4.95;;;;;;;;;;5046310;28;20387;-32
2022/05/14 00:52:50;;;;;;;6.88;4.30;;;;;;;;;;5044034;28;20041;-34
2022/05/14 00:55:17;;;;;;;8.35;4.47;;;;;;;;;;5050598;28;20041;-32
2022/05/14 00:57:44;;;;;;;9.43;5.25;;;;;;;;;;5050659;28;20076;-29
2022/05/14 01:00:16;;;;;;;7.53;4.60;;;;;;;;;;5050587;28;20541;-31
2022/05/14 01:02:42;;;;;;;12.77;5.07;;;;;;;;;;5050095;28;20385;-32
2022/05/14 01:05:09;;;;;;;9.23;4.38;;;;;;;;;;5050013;28;20048;-31
2022/05/14 01:07:37;;;;;;;8.90;4.13;;;;;;;;;;5048657;28;20040;-30
2022/05/14 01:10:05;;;;;;;8.73;4.22;;;;;;;;;;5043541;28;20375;-31
2022/05/14 01:12:32;;;;;;;7.40;4.07;;;;;;;;;;5050247;28;20037;-31
2022/05/14 01:15:14;;;;;;;9.48;3.85;;;;;;;;;;5045805;28;20064;-33
2022/05/14 01:17:40;;;;;;;7.47;3.78;;;;;;;;;;5029349;28;20079;-31
2022/05/14 01:20:07;;;;;;;7.03;3.83;;;;;;;;;;5036019;28;20487;-31
2022/05/14 01:22:38;;;;;;;10.43;4.13;;;;;;;;;;5051766;28;20033;-33
2022/05/14 01:28:05;;;;;;;9.55;4.97;;;;;;;;;;5034917;28;20046;-33
2022/05/14 01:30:31;;;;;;;9.63;4.22;;;;;;;;;;5052174;28;20127;-32
2022/05/14 01:33:06;;;;;;;7.25;3.75;;;;;;;;;;5053694;28;20430;-32
2022/05/14 01:35:33;;;;;;;7.85;3.67;;;;;;;;;;5053956;28;20379;-33
2022/05/14 01:37:59;;;;;;;11.93;4.55;;;;;;;;;;5053595;28;20037;-33
2022/05/14 01:40:25;;;;;;;9.75;4.22;;;;;;;;;;5053433;28;20033;-31
2022/05/14 01:42:51;;;;;;;6.30;3.50;;;;;;;;;;5052764;28;20315;-33
2022/05/14 01:45:18;;;;;;;9.13;4.78;;;;;;;;;;5053635;28;20225;-32
2022/05/14 01:47:44;;;;;;;9.85;4.43;;;;;;;;;;5051207;28;20592;-31
2022/05/14 01:50:10;;;;;;;10.27;4.35;;;;;;;;;;5044768;28;20045;-33
2022/05/14 01:52:36;;;;;;;10.77;4.05;;;;;;;;;;5049478;28;20068;-32
2022/05/14 01:55:02;;;;;;;9.40;4.15;;;;;;;;;;5034900;28;20120;-33
2022/05/14 01:57:29;;;;;;;9.23;4.30;;;;;;;;;;5052722;28;20394;-32
2022/05/14 01:59:55;;;;;;;8.93;3.83;;;;;;;;;;5053382;28;20049;-31
2022/05/14 02:02:21;;;;;;;8.73;4.05;;;;;;;;;;5053382;28;20029;-31
2022/05/14 02:04:48;;;;;;;8.93;3.88;;;;;;;;;;5052952;28;20051;-28
2022/05/14 02:07:14;;;;;;;9.43;3.83;;;;;;;;;;5054058;28;20033;-29
2022/05/14 02:09:40;;;;;;;14.68;4.00;;;;;;;;;;5052508;28;20045;-29
2022/05/14 02:12:06;;;;;;;7.47;4.45;;;;;;;;;;5051951;28;20473;-29
2022/05/14 02:14:32;;;;;;;9.02;4.25;;;;;;;;;;5053187;28;20064;-28
2022/05/14 02:16:58;;;;;;;12.40;4.63;;;;;;;;;;5054121;28;20041;-29
2022/05/14 02:19:25;;;;;;;9.32;4.38;;;;;;;;;;5053371;28;20048;-30
2022/05/14 02:21:51;;;;;;;10.02;4.38;;;;;;;;;;5053487;28;20493;-30
2022/05/14 02:24:17;;;;;;;9.75;4.30;;;;;;;;;;5035639;28;20091;-28
2022/05/14 02:26:43;;;;;;;8.63;4.72;;;;;;;;;;5052128;28;20124;-29
2022/05/14 02:29:10;;;;;;;10.95;4.88;;;;;;;;;;5052583;28;20045;-28
2022/05/14 02:31:36;;;;;;;8.55;4.22;;;;;;;;;;5035506;28;20163;-28
2022/05/14 02:34:02;;;;;;;11.18;4.90;;;;;;;;;;5052338;28;20044;-29
2022/05/14 02:36:28;;;;;;;13.02;5.10;;;;;;;;;;5053723;28;20041;-28
2022/05/14 02:38:54;;;;;;;10.18;4.63;;;;;;;;;;5053055;28;20052;-30
2022/05/14 02:41:20;;;;;;;17.70;5.60;;;;;;;;;;5053438;28;20080;-28
2022/05/14 02:43:46;;;;;;;9.50;4.85;;;;;;;;;;5053207;28;20043;-28
2022/05/14 02:46:12;;;;;;;11.23;4.75;;;;;;;;;;5017919;28;20037;-32
2022/05/14 02:48:39;;;;;;;11.75;4.93;;;;;;;;;;5049524;28;20159;-29
2022/05/14 02:51:05;;;;;;;12.07;4.95;;;;;;;;;;5051587;28;20044;-30
2022/05/14 02:53:32;;;;;;;14.23;5.60;;;;;;;;;;5051868;28;20047;-30
2022/05/14 02:55:58;;;;;;;11.07;4.65;;;;;;;;;;5050422;28;20467;-30
2022/05/14 03:01:09;;;;;;;12.80;5.55;;;;;;;;;;5044799;28;20045;-29
2022/05/14 03:03:35;;;;;;;13.10;5.18;;;;;;;;;;5051968;28;20045;-29
2022/05/14 03:06:01;;;;;;;15.68;5.65;;;;;;;;;;5052357;28;20029;-29
2022/05/14 03:08:27;;;;;;;16.75;5.53;;;;;;;;;;5052098;28;20558;-30
2022/05/14 03:10:53;;;;;;;10.20;5.25;;;;;;;;;;5051731;28;20052;-29
2022/05/14 03:13:20;;;;;;;17.10;6.65;;;;;;;;;;5051827;28;20044;-29
2022/05/14 03:15:46;;;;;;;9.00;5.20;;;;;;;;;;5052242;28;20033;-29
2022/05/14 03:18:12;;;;;;;14.48;5.15;;;;;;;;;;5051201;28;20048;-31
2022/05/14 03:20:38;;;;;;;17.08;5.57;;;;;;;;;;5051329;28;20088;-30
2022/05/14 03:23:04;;;;;;;12.02;5.18;;;;;;;;;;5051532;28;20033;-30
2022/05/14 03:25:31;;;;;;;12.25;5.38;;;;;;;;;;5051772;28;20040;-30
2022/05/14 03:27:57;;;;;;;10.43;4.97;;;;;;;;;;5051412;28;20041;-31
2022/05/14 03:30:23;;;;;;;11.02;5.38;;;;;;;;;;5050844;28;20090;-30
2022/05/14 03:32:50;;;;;;;9.75;5.32;;;;;;;;;;5051725;28;20056;-31
2022/05/14 03:35:16;;;;;;;13.75;5.43;;;;;;;;;;5051429;28;20179;-30
2022/05/14 03:37:42;;;;;;;13.00;6.15;;;;;;;;;;5050802;28;20048;-31
2022/05/14 03:40:09;;;;;;;10.00;5.15;;;;;;;;;;5051875;28;20037;-29
2022/05/14 03:42:36;;;;;;;13.30;5.93;;;;;;;;;;5052191;28;20041;-28
2022/05/14 03:45:02;;;;;;;9.75;5.70;;;;;;;;;;5052073;28;20064;-29
2022/05/14 03:47:29;;;;;;;13.63;5.85;;;;;;;;;;5052534;28;20025;-28
2022/05/14 03:49:55;;;;;;;12.15;5.78;;;;;;;;;;5052212;28;20041;-28
2022/05/14 03:52:21;;;;;;;11.88;5.68;;;;;;;;;;5052955;28;20418;-29
2022/05/14 03:54:47;;;;;;;11.13;5.43;;;;;;;;;;5052326;28;20076;-28
2022/05/14 03:57:14;;;;;;;9.75;6.38;;;;;;;;;;5034097;28;20040;-29
2022/05/14 03:59:40;;;;;;;9.95;6.20;;;;;;;;;;5051676;28;20127;-29
2022/05/14 04:02:07;;;;;;;12.20;5.60;;;;;;;;;;5051688;28;20069;-28
2022/05/14 04:04:33;;;;;;;12.23;6.35;;;;;;;;;;5052303;28;20572;-28
2022/05/14 04:06:59;;;;;;;9.00;5.55;;;;;;;;;;5033955;28;20044;-30
2022/05/14 04:09:26;;;;;;;13.52;5.97;;;;;;;;;;5051893;28;20036;-29
2022/05/14 04:11:52;;;;;;;12.38;5.88;;;;;;;;;;5037566;28;20425;-28
2022/05/14 04:14:18;;;;;;;12.93;6.25;;;;;;;;;;5032410;28;20045;-28
2022/05/14 04:16:45;;;;;;;8.90;5.60;;;;;;;;;;5032415;28;20124;-29
2022/05/14 04:19:11;;;;;;;11.77;5.90;;;;;;;;;;5031076;28;20128;-29
2022/05/14 04:21:38;;;;;;;11.70;6.50;;;;;;;;;;5032453;28;20419;-31
2022/05/14 04:24:04;;;;;;;10.98;5.93;;;;;;;;;;5032154;28;20550;-29
2022/05/14 04:26:31;;;;;;;12.63;6.75;;;;;;;;;;5031898;28;20049;-28
2022/05/14 04:28:57;;;;;;;11.27;6.22;;;;;;;;;;5031863;28;20092;-30
2022/05/14 04:31:23;;;;;;;11.52;5.78;;;;;;;;;;5031976;28;20558;-29
2022/05/14 04:33:50;;;;;;;10.57;5.88;;;;;;;;;;5031992;28;20051;-29
2022/05/14 04:36:16;;;;;;;12.90;6.05;;;;;;;;;;5031675;28;20045;-29
2022/05/14 04:38:42;;;;;;;11.43;5.50;;;;;;;;;;5031688;28;20045;-30
2022/05/14 04:41:08;;;;;;;8.90;6.07;;;;;;;;;;5031669;28;20049;-28
2022/05/14 04:43:34;;;;;;;11.48;5.72;;;;;;;;;;5033724;28;20037;-28
2022/05/14 04:46:00;;;;;;;13.15;6.25;;;;;;;;;;5051219;28;20037;-29
2022/05/14 04:48:26;;;;;;;10.40;6.13;;;;;;;;;;5031726;28;20100;-29
2022/05/14 04:50:54;;;;;;;11.02;6.65;;;;;;;;;;5038152;28;20128;-28
2022/05/14 04:53:20;;;;;;;12.65;7.05;;;;;;;;;;5050041;28;20041;-28
2022/05/14 04:55:47;;;;;;;8.90;6.40;;;;;;;;;;5031552;28;20583;-29
2022/05/14 04:58:14;;;;;;;11.07;6.50;;;;;;;;;;5052600;28;20049;-29
2022/05/14 05:00:41;;;;;;;10.02;7.22;;;;;;;;;;5041413;28;20038;-28
2022/05/14 05:03:16;;;;;;;15.98;7.57;;;;;;;;;;5039277;28;20511;-31
2022/05/14 05:05:43;;;;;;;18.02;6.43;;;;;;;;;;5019646;28;20041;-32
2022/05/14 05:08:09;;;;;;;13.15;7.47;;;;;;;;;;5053834;28;20045;-32
2022/05/14 05:10:36;;;;;;;13.32;6.68;;;;;;;;;;5050373;28;20045;-30
2022/05/14 05:13:02;;;;;;;12.38;7.15;;;;;;;;;;5049726;28;20038;-31
2022/05/14 05:15:28;;;;;;;14.25;7.65;;;;;;;;;;5045465;28;20105;-31
2022/05/14 05:17:55;;;;;;;15.38;7.40;;;;;;;;;;5041798;28;20107;-31
2022/05/14 05:20:21;;;;;;;14.68;7.88;;;;;;;;;;5044097;28;20411;-31
2022/05/14 05:22:48;;;;;;;16.42;8.13;;;;;;;;;;5034956;28;20029;-32
2022/05/14 05:25:14;;;;;;;12.95;7.30;;;;;;;;;;5041429;28;20113;-31
2022/05/14 05:27:40;;;;;;;18.55;8.05;;;;;;;;;;5039155;28;20044;-32
2022/05/14 05:30:07;;;;;;;17.05;9.02;;;;;;;;;;5022428;28;20079;-31
2022/05/14 05:32:34;;;;;;;15.00;7.53;;;;;;;;;;5049243;28;20033;-31
2022/05/14 05:35:00;;;;;;;15.93;8.40;;;;;;;;;;5053612;28;20032;-32
2022/05/14 05:37:26;;;;;;;16.88;8.38;;;;;;;;;;5052537;28;20041;-33
2022/05/14 05:39:52;;;;;;;13.60;8.10;;;;;;;;;;5053557;28;20052;-33
2022/05/14 05:42:19;;;;;;;17.42;8.50;;;;;;;;;;5053120;28;20051;-32
2022/05/14 05:44:45;;;;;;;19.40;8.77;;;;;;;;;;5039698;28;20040;-31
2022/05/14 05:47:12;;;;;;;13.23;7.78;;;;;;;;;;5038740;28;20038;-30
2022/05/14 05:49:39;;;;;;;16.35;8.27;;;;;;;;;;5040562;28;20509;-31
2022/05/14 05:52:05;;;;;;;13.20;7.80;;;;;;;;;;5053624;28;20048;-31
2022/05/14 05:57:16;;;;;;;19.75;8.65;;;;;;;;;;5040795;28;20045;-31
2022/05/14 05:59:43;;;;;;;15.07;8.35;;;;;;;;;;5021006;28;20502;-32
2022/05/14 06:02:09;;;;;;;17.08;10.00;;;;;;;;;;5042221;28;20037;-31
2022/05/14 06:04:35;;;;;;;18.88;9.90;;;;;;;;;;5058845;28;20063;-31
2022/05/14 06:07:02;;;;;;;17.73;9.40;;;;;;;;;;5052733;28;20074;-31
2022/05/14 06:09:29;;;;;;;17.08;9.60;;;;;;;;;;5052772;28;20048;-31
2022/05/14 06:11:58;;;;;;;19.48;9.73;;;;;;;;;;5063639;28;20048;-32
2022/05/14 06:14:25;;;;;;;22.77;10.27;;;;;;;;;;5042525;28;20045;-31
2022/05/14 06:16:52;;;;;;;22.15;10.15;;;;;;;;;;5033854;28;20041;-32
2022/05/14 06:19:18;;;;;;;22.67;10.35;;;;;;;;;;5032136;28;20042;-31
2022/05/14 06:21:44;;;;;;;23.83;10.48;;;;;;;;;;5034641;28;20040;-34
2022/05/14 06:24:10;;;;;;;20.73;9.88;;;;;;;;;;5052313;28;20502;-33
2022/05/14 06:26:37;;;;;;;18.42;10.43;;;;;;;;;;5026727;28;20628;-33
2022/05/14 06:29:04;;;;;;;19.15;9.43;;;;;;;;;;5040097;28;20498;-32
2022/05/14 06:31:30;;;;;;;22.40;9.75;;;;;;;;;;5042483;28;20124;-34
2022/05/14 06:33:56;;;;;;;17.05;9.15;;;;;;;;;;5015653;28;20045;-31
2022/05/14 06:36:23;;;;;;;18.13;9.55;;;;;;;;;;5031810;28;20033;-30
2022/05/14 06:38:49;;;;;;;23.95;10.05;;;;;;;;;;5031838;28;20590;-31
2022/05/14 06:41:16;;;;;;;20.70;9.57;;;;;;;;;;5036853;28;20039;-30
2022/05/14 06:43:42;;;;;;;19.85;8.65;;;;;;;;;;5052813;28;20033;-31
2022/05/14 06:46:08;;;;;;;17.50;8.73;;;;;;;;;;5047718;28;20076;-32
2022/05/14 06:48:35;;;;;;;17.42;8.77;;;;;;;;;;5047376;28;20037;-34
2022/05/14 06:51:03;;;;;;;12.10;8.40;;;;;;;;;;5031525;28;20083;-34
2022/05/14 06:53:29;;;;;;;23.20;8.60;;;;;;;;;;5031926;28;20034;-36
2022/05/14 06:55:56;;;;;;;16.77;9.23;;;;;;;;;;5032870;28;20041;-30
2022/05/14 06:58:26;;;;;;;19.17;9.25;;;;;;;;;;5032252;28;20050;-33
2022/05/14 07:00:52;;;;;;;16.77;8.93;;;;;;;;;;5032081;28;20045;-32
2022/05/14 07:08:48;;;;;;;21.60;9.43;;;;;;;;;;5050945;28;20068;-33
2022/05/14 07:11:14;;;;;;;19.63;9.23;;;;;;;;;;5051217;28;20048;-31
2022/05/14 07:13:40;;;;;;;19.10;9.30;;;;;;;;;;5051521;28;20063;-30
2022/05/14 07:16:06;;;;;;;14.40;8.48;;;;;;;;;;5051479;28;20124;-32
2022/05/14 07:18:32;;;;;;;21.23;9.45;;;;;;;;;;5049755;28;20045;-29
2022/05/14 07:20:59;;;;;;;17.85;9.43;;;;;;;;;;5042284;28;20048;-31
2022/05/14 07:23:25;;;;;;;20.02;9.18;;;;;;;;;;5031591;28;20506;-32
2022/05/14 07:25:51;;;;;;;18.38;8.45;;;;;;;;;;5031572;28;20179;-33
2022/05/14 07:28:17;;;;;;;24.27;9.70;;;;;;;;;;5030133;28;20037;-33
2022/05/14 07:30:44;;;;;;;24.30;9.43;;;;;;;;;;5048868;28;20410;-31
2022/05/14 07:33:10;;;;;;;14.50;8.27;;;;;;;;;;5052284;28;20045;-32
2022/05/14 07:35:37;;;;;;;22.58;8.77;;;;;;;;;;5051784;28;20383;-29
2022/05/14 07:38:05;;;;;;;17.42;7.95;;;;;;;;;;5039158;28;20033;-29
2022/05/14 07:40:32;;;;;;;19.10;6.88;;;;;;;;;;5031022;28;20406;-30
2022/05/14 07:43:06;;;;;;;15.23;6.53;;;;;;;;;;5030343;28;20041;-29
2022/05/14 07:45:36;;;;;;;16.63;6.65;;;;;;;;;;5031678;28;20041;-30
2022/05/14 07:48:04;;;;;;;19.60;7.25;;;;;;;;;;5048609;28;20112;-30
2022/05/14 07:50:30;;;;;;;16.52;6.68;;;;;;;;;;5051326;28;20037;-29
2022/05/14 07:52:57;;;;;;;13.95;6.70;;;;;;;;;;5042378;28;20087;-29
2022/05/14 07:55:23;;;;;;;17.20;6.43;;;;;;;;;;5034192;28;20037;-29
2022/05/14 07:57:49;;;;;;;18.98;7.28;;;;;;;;;;5051422;28;20400;-29
2022/05/14 08:00:16;;;;;;;19.42;7.70;;;;;;;;;;5050833;28;20120;-31
2022/05/14 08:02:43;;;;;;;18.20;6.55;;;;;;;;;;5050771;28;20079;-30
2022/05/14 08:05:10;;;;;;;20.02;6.82;;;;;;;;;;5050745;28;20047;-29
2022/05/14 08:07:37;;;;;;;18.65;6.28;;;;;;;;;;5050802;28;20564;-30
2022/05/14 08:10:04;;;;;;;16.15;6.70;;;;;;;;;;5050356;28;20037;-30
2022/05/14 08:12:38;;;;;;;20.30;6.57;;;;;;;;;;5050692;28;20334;-30
2022/05/14 08:15:04;;;;;;;;;;;;;;;;;;5043403;28;20041;-29
2022/05/14 08:17:30;;;;;;;17.48;6.35;;;;;;;;;;5030527;28;19921;-30
2022/05/14 08:19:56;;;;;;;15.50;6.75;;;;;;;;;;5040079;28;20041;-30
2022/05/14 08:25:08;;;;;;;16.48;6.63;;;;;;;;;;5050844;28;20116;-30
2022/05/14 08:27:44;;;;;;;13.07;6.43;;;;;;;;;;5032633;28;20073;-30
2022/05/14 08:30:27;;;;;;;19.63;6.57;;;;;;;;;;5050675;28;20458;-29
2022/05/14 08:32:53;;;;;;;15.50;6.53;;;;;;;;;;5054255;28;20036;-30
2022/05/14 08:35:20;;;;;;;16.83;6.38;;;;;;;;;;5054804;28;20049;-30
2022/05/14 08:37:46;;;;;;;21.20;5.95;;;;;;;;;;5054874;28;20107;-30
2022/05/14 08:40:18;;;;;;;17.05;6.28;;;;;;;;;;5055324;28;20115;-30
2022/05/14 08:42:48;;;;;;;22.75;7.00;;;;;;;;;;5054716;28;20116;-29
2022/05/14 08:45:15;;;;;;;17.13;6.18;;;;;;;;;;5054016;28;20045;-30
2022/05/14 08:47:47;;;;;;;19.13;6.35;;;;;;;;;;5054745;28;20048;-29
2022/05/14 08:50:13;;;;;;;18.52;6.43;;;;;;;;;;5054707;28;20049;-30
2022/05/14 08:52:39;;;;;;;17.48;5.88;;;;;;;;;;5054601;28;20098;-30
2022/05/14 08:55:07;;;;;;;16.55;6.40;;;;;;;;;;5054598;28;20045;-30
2022/05/14 08:57:33;;;;;;;16.35;6.00;;;;;;;;;;5054471;28;20044;-30
2022/05/14 09:00:00;;;;;;;17.88;5.28;;;;;;;;;;5044806;28;20041;-30
2022/05/14 09:02:46;;;;;;;18.58;5.68;;;;;;;;;;5035563;28;20038;-30
2022/05/14 09:05:13;;;;;;;10.75;4.53;;;;;;;;;;5045879;28;20105;-30
2022/05/14 09:07:39;;;;;;;16.35;5.15;;;;;;;;;;5055032;28;20076;-31
2022/05/14 09:10:08;;;;;;;14.80;4.97;;;;;;;;;;5055248;28;20076;-33
2022/05/14 09:12:36;;;;;;;13.50;5.13;;;;;;;;;;5021186;28;20459;-32
2022/05/14 09:15:05;;;;;;;14.18;5.18;;;;;;;;;;5054084;28;20036;-31
2022/05/14 09:17:32;;;;;;;16.08;5.30;;;;;;;;;;5050113;28;20041;-31
2022/05/14 09:19:59;;;;;;;12.80;5.25;;;;;;;;;;5034470;28;20053;-32
2022/05/14 09:22:34;;;;;;;13.70;4.72;;;;;;;;;;5035909;28;20046;-32
2022/05/14 09:25:20;;;;;;;15.65;5.22;;;;;;;;;;5034448;28;20442;-31
2022/05/14 09:27:56;;;;;;;12.90;5.03;;;;;;;;;;5034613;28;20471;-31
2022/05/14 09:30:27;;;;;;;15.18;4.53;;;;;;;;;;5048303;28;20037;-32
2022/05/14 09:32:53;;;;;;;15.25;4.82;;;;;;;;;;5054010;28;20092;-31
2022/05/14 09:35:22;;;;;;;11.13;4.80;;;;;;;;;;5052953;28;20032;-31
2022/05/14 09:37:48;;;;;;;13.82;4.30;;;;;;;;;;5053289;28;20037;-32
2022/05/14 09:40:27;;;;;;;11.45;4.82;;;;;;;;;;5053788;28;20048;-32
2022/05/14 09:43:16;;;;;;;10.95;4.55;;;;;;;;;;5052108;28;20052;-31
2022/05/14 09:46:00;;;;;;;14.15;4.47;;;;;;;;;;5049917;28;20037;-33
2022/05/14 09:48:49;;;;;;;9.50;4.00;;;;;;;;;;5051147;28;20086;-31
2022/05/14 09:51:32;;;;;;;17.95;5.22;;;;;;;;;;5049810;28;20376;-32
2022/05/14 09:54:08;;;;;;;14.20;4.78;;;;;;;;;;5025691;28;20041;-31
2022/05/14 09:56:43;;;;;;;13.77;5.03;;;;;;;;;;5025581;28;20119;-34
2022/05/14 09:59:19;;;;;;;13.98;5.30;;;;;;;;;;5047725;28;20045;-31
2022/05/14 10:01:49;;;;;;;10.68;4.35;;;;;;;;;;5049143;28;20120;-31
2022/05/14 10:04:32;;;;;;;14.18;4.75;;;;;;;;;;5043790;28;20561;-31
2022/05/14 10:06:59;;;;;;;15.52;5.00;;;;;;;;;;5048660;28;20064;-32
2022/05/14 10:09:36;;;;;;;17.25;5.43;;;;;;;;;;5034510;28;20037;-31
2022/05/14 10:12:12;;;;;;;15.82;4.70;;;;;;;;;;5043538;28;20125;-30
2022/05/14 10:14:41;;;;;;;12.95;4.93;;;;;;;;;;5026059;28;20039;-31
2022/05/14 10:17:19;;;;;;;16.77;5.35;;;;;;;;;;5046470;28;20051;-30
2022/05/14 10:20:06;;;;;;;16.30;4.95;;;;;;;;;;5026237;28;20075;-31
2022/05/14 10:28:21;;;;;;;14.65;5.30;;;;;;;;;;5067180;28;20048;-35
2022/05/14 10:30:47;;;;;;;;;;;;;;;;;;5053378;28;20155;-32
2022/05/14 10:33:17;;;;;;;13.75;4.75;;;;;;;;;;5067001;28;20488;-38
2022/05/14 10:35:43;;;;;;;12.63;4.85;;;;;;;;;;5056258;28;20040;-32
2022/05/14 10:38:20;;;;;;;14.35;4.93;;;;;;;;;;5052617;28;20040;-31
2022/05/14 10:40:48;;;;;;;12.10;4.60;;;;;;;;;;5052707;28;20053;-30
2022/05/14 10:43:27;;;;;;;11.77;4.70;;;;;;;;;;5015079;28;20125;-31
2022/05/14 10:45:55;;;;;;;14.90;4.63;;;;;;;;;;5038043;28;20123;-31
2022/05/14 10:48:37;;;;;;;14.60;4.32;;;;;;;;;;5042291;28;20123;-29
2022/05/14 10:51:06;;;;;;;16.80;4.17;;;;;;;;;;5057684;28;20041;-30
2022/05/14 10:53:33;;;;;;;13.93;5.10;;;;;;;;;;5057233;28;20283;-31
2022/05/14 10:56:03;;;;;;;11.85;4.60;;;;;;;;;;5034567;28;20087;-32
2022/05/14 10:58:42;;;;;;;15.10;4.68;;;;;;;;;;5034233;28;20083;-31
2022/05/14 11:01:28;;;;;;;11.32;4.28;;;;;;;;;;5034929;28;20037;-31
2022/05/14 11:04:13;;;;;;;12.50;4.80;;;;;;;;;;5051524;28;20119;-33
2022/05/14 11:06:49;;;;;;;13.80;4.43;;;;;;;;;;5046613;28;20029;-32
2022/05/14 11:09:17;;;;;;;11.32;4.57;;;;;;;;;;5052408;28;20478;-32
2022/05/14 11:11:47;;;;;;;12.93;4.55;;;;;;;;;;5052809;28;20064;-32
2022/05/14 11:14:14;;;;;;;16.45;4.45;;;;;;;;;;5052488;28;20044;-35
2022/05/14 11:16:40;;;;;;;12.10;3.95;;;;;;;;;;5052716;28;20037;-30
2022/05/14 11:19:07;;;;;;;10.68;4.22;;;;;;;;;;5052598;28;20112;-31
2022/05/14 11:21:38;;;;;;;12.43;4.50;;;;;;;;;;5041951;28;20510;-32
2022/05/14 11:24:05;;;;;;;12.68;4.03;;;;;;;;;;5033041;28;20132;-34
2022/05/14 11:26:31;;;;;;;11.15;3.72;;;;;;;;;;5046080;28;20083;-31
2022/05/14 11:28:59;;;;;;;12.93;4.18;;;;;;;;;;5052834;28;20060;-34
2022/05/14 11:31:29;;;;;;;11.65;4.10;;;;;;;;;;5051791;28;20064;-39
2022/05/14 11:33:57;;;;;;;13.88;4.38;;;;;;;;;;5051798;28;20051;-33
2022/05/14 11:36:25;;;;;;;12.35;4.05;;;;;;;;;;5050420;28;20498;-40
2022/05/14 11:39:06;;;;;;;10.95;4.15;;;;;;;;;;5050630;28;20372;-34
2022/05/14 11:41:35;;;;;;;11.32;4.07;;;;;;;;;;5046163;28;20471;-36
2022/05/14 11:44:04;;;;;;;11.93;4.68;;;;;;;;;;5051142;28;20071;-33
2022/05/14 11:46:40;;;;;;;12.23;4.50;;;;;;;;;;5050428;28;20048;-35
2022/05/14 11:49:31;;;;;;;13.02;4.25;;;;;;;;;;5033126;28;20411;-33
2022/05/14 11:52:16;;;;;;;13.05;3.95;;;;;;;;;;5050354;28;20075;-35
2022/05/14 11:54:58;;;;;;;12.23;4.50;;;;;;;;;;5050298;28;20107;-32
2022/05/14 11:57:28;;;;;;;10.68;3.85;;;;;;;;;;5050680;28;20471;-37
2022/05/14 12:00:06;;;;;;;15.20;5.03;;;;;;;;;;5050917;28;20064;-34
2022/05/14 12:02:47;;;;;;;10.10;4.00;;;;;;;;;;5050617;28;20534;-34
2022/05/14 12:05:40;;;;;;;12.93;4.70;;;;;;;;;;5050253;28;20398;-34
2022/05/14 12:08:15;;;;;;;13.25;4.38;;;;;;;;;;5046668;28;20111;-35
2022/05/14 12:10:59;;;;;;;10.73;3.83;;;;;;;;;;5049749;28;20041;-32
2022/05/14 12:13:31;;;;;;;11.52;3.92;;;;;;;;;;5050651;28;20037;-34
2022/05/14 12:15:59;;;;;;;11.45;4.40;;;;;;;;;;5051032;28;20037;-34
2022/05/14 12:18:26;;;;;;;7.65;3.45;;;;;;;;;;5049807;28;20051;-35
2022/05/14 12:20:57;;;;;;;11.88;4.13;;;;;;;;;;5051042;28;20041;-33
2022/05/14 12:23:53;;;;;;;13.10;4.57;;;;;;;;;;5049581;28;20040;-33
2022/05/14 12:26:24;;;;;;;12.57;4.10;;;;;;;;;;5034784;28;20044;-32
2022/05/14 12:28:51;;;;;;;11.30;4.00;;;;;;;;;;5042921;28;20041;-33
2022/05/14 12:34:08;;;;;;;11.90;4.10;;;;;;;;;;5030586;28;20495;-33
2022/05/14 12:36:36;;;;;;;11.55;4.03;;;;;;;;;;5041853;28;20120;-34
2022/05/14 12:39:07;;;;;;;11.98;4.13;;;;;;;;;;5049504;28;20441;-33
2022/05/14 12:41:39;;;;;;;9.85;3.88;;;;;;;;;;5048410;28;20462;-34
2022/05/14 12:44:25;;;;;;;10.40;3.85;;;;;;;;;;5050102;28;20110;-33
2022/05/14 12:46:54;;;;;;;10.40;4.45;;;;;;;;;;5048481;28;20041;-32
2022/05/14 12:49:40;;;;;;;10.00;4.32;;;;;;;;;;5049887;28;20098;-35
2022/05/14 12:52:09;;;;;;;10.48;3.78;;;;;;;;;;5038311;28;20052;-32
2022/05/14 12:54:36;;;;;;;10.23;4.13;;;;;;;;;;5049403;28;20045;-33
2022/05/14 12:57:06;;;;;;;12.43;4.10;;;;;;;;;;5033942;28;20117;-33
2022/05/14 12:59:34;;;;;;;8.60;3.50;;;;;;;;;;5044406;28;20120;-33
2022/05/14 13:02:03;;;;;;;9.43;3.65;;;;;;;;;;5043252;28;20048;-33
2022/05/14 13:04:36;;;;;;;12.63;4.13;;;;;;;;;;5038287;28;20045;-36
2022/05/14 13:07:03;;;;;;;9.75;3.80;;;;;;;;;;5046155;28;20075;-35
2022/05/14 13:09:29;;;;;;;10.15;3.75;;;;;;;;;;5031459;28;20048;-34
2022/05/14 13:11:57;;;;;;;12.65;4.50;;;;;;;;;;5038777;28;20059;-32
2022/05/14 13:14:29;;;;;;;10.32;4.35;;;;;;;;;;5038053;28;20049;-38
2022/05/14 13:17:03;;;;;;;13.32;3.70;;;;;;;;;;5036064;28;20372;-35
2022/05/14 13:19:32;;;;;;;14.15;4.75;;;;;;;;;;5031669;28;20053;-37
2022/05/14 13:21:58;;;;;;;14.68;6.47;;;;;;;;;;5039074;28;20100;-33
2022/05/14 13:24:24;;;;;;;11.60;4.20;;;;;;;;;;5053132;28;20040;-35
2022/05/14 13:26:51;;;;;;;12.45;4.60;;;;;;;;;;5051966;28;20513;-33
2022/05/14 13:29:30;;;;;;;15.63;4.70;;;;;;;;;;5053498;28;20440;-33
2022/05/14 13:32:05;;;;;;;13.43;4.43;;;;;;;;;;5053492;28;20186;-32
2022/05/14 13:37:18;;;;;;;15.57;4.68;;;;;;;;;;5053155;28;20045;-32
2022/05/14 13:39:49;;;;;;;17.08;4.13;;;;;;;;;;5047980;28;20129;-32
2022/05/14 13:42:38;;;;;;;13.07;4.15;;;;;;;;;;5035843;28;20251;-33
2022/05/14 13:45:06;;;;;;;12.80;4.85;;;;;;;;;;5041562;28;20110;-32
2022/05/14 13:47:33;;;;;;;13.27;4.03;;;;;;;;;;5044544;28;20117;-33
2022/05/14 13:50:00;;;;;;;10.90;4.07;;;;;;;;;;5045507;28;20052;-31
2022/05/14 13:52:33;;;;;;;11.23;4.30;;;;;;;;;;5038476;28;20384;-32
2022/05/14 13:55:04;;;;;;;11.35;4.05;;;;;;;;;;5033189;28;20037;-30
2022/05/14 13:57:30;;;;;;;16.05;4.47;;;;;;;;;;5032073;28;20041;-33
2022/05/14 14:00:07;;;;;;;11.30;4.63;;;;;;;;;;5033640;28;20046;-28
2022/05/14 14:02:33;;;;;;;12.02;5.32;;;;;;;;;;5033537;28;20033;-34
2022/05/14 14:05:01;;;;;;;12.90;4.13;;;;;;;;;;5045579;28;20503;-36
2022/05/14 14:07:29;;;;;;;12.05;4.00;;;;;;;;;;5033053;28;20037;-31
2022/05/14 14:09:55;;;;;;;12.48;4.68;;;;;;;;;;5052015;28;20037;-39
2022/05/14 14:12:24;;;;;;;13.80;5.00;;;;;;;;;;5034737;28;20041;-33
2022/05/14 14:14:51;;;;;;;12.10;3.83;;;;;;;;;;5042717;28;20396;-34
2022/05/14 14:17:17;;;;;;;15.65;4.75;;;;;;;;;;5046501;28;20059;-30
2022/05/14 14:19:43;;;;;;;14.13;4.60;;;;;;;;;;5049352;28;20040;-34
2022/05/14 14:22:10;;;;;;;16.75;4.85;;;;;;;;;;5051787;28;20112;-35
2022/05/14 14:24:38;;;;;;;12.38;4.43;;;;;;;;;;5042590;28;20040;-32
2022/05/14 14:27:05;;;;;;;11.65;4.70;;;;;;;;;;5040554;28;20068;-33
2022/05/14 14:29:31;;;;;;;16.80;4.40;;;;;;;;;;5039550;28;20045;-33
2022/05/14 14:31:57;;;;;;;12.60;4.43;;;;;;;;;;5042306;28;20586;-32
2022/05/14 14:34:23;;;;;;;14.02;4.60;;;;;;;;;;5033612;28;20053;-33
2022/05/14 14:36:49;;;;;;;12.57;4.47;;;;;;;;;;5032854;28;20457;-38
2022/05/14 14:39:16;;;;;;;13.60;4.30;;;;;;;;;;5037297;28;20033;-35
2022/05/14 14:41:44;;;;;;;15.07;4.85;;;;;;;;;;5037575;28;20029;-31
2022/05/14 14:44:11;;;;;;;14.70;4.50;;;;;;;;;;5045714;28;20044;-35
2022/05/14 14:46:37;;;;;;;15.10;5.00;;;;;;;;;;5020433;28;20456;-32
2022/05/14 14:49:08;;;;;;;12.65;4.55;;;;;;;;;;5038929;28;20044;-35
2022/05/14 14:51:35;;;;;;;14.80;4.45;;;;;;;;;;5030828;28;20072;-32
2022/05/14 14:54:01;;;;;;;12.55;4.45;;;;;;;;;;5020476;28;20110;-32
2022/05/14 14:56:27;;;;;;;12.70;4.60;;;;;;;;;;5050640;28;20068;-31
2022/05/14 14:58:55;;;;;;;13.20;3.90;;;;;;;;;;5035207;28;20523;-30
2022/05/14 15:01:41;;;;;;;10.48;4.20;;;;;;;;;;5025678;28;20044;-31
2022/05/14 15:04:13;;;;;;;13.80;4.63;;;;;;;;;;5035398;28;20041;-30
2022/05/14 15:06:40;;;;;;;14.88;4.65;;;;;;;;;;5032352;28;20064;-32
2022/05/14 15:09:06;;;;;;;12.52;4.53;;;;;;;;;;5030314;28;20398;-32
2022/05/14 15:11:32;;;;;;;16.67;4.65;;;;;;;;;;5039204;28;20344;-32